Time;durP1;ratioP1;P1;durP2;ratioP2;P2;SDS_P1;SDS_P2;PMS_P1;PMS_P2;Temp;Humidity;BMP_temperature;BMP_pressure;BME280_temperature;BME280_humidity;BME280_pressure;Samples;Min_cycle;Max_cycle;Signal;HPM_P1;HPM_P2
2021/04/18 00:01:24;;;;;;;9.60;6.33;;;;;;;9.26;63.78;101030.16;4986550;28;20209;-79
2021/04/18 00:03:50;;;;;;;6.97;5.80;;;;;;;9.28;63.49;101029.28;4985875;28;20227;-78
2021/04/18 00:06:17;;;;;;;5.53;5.03;;;;;;;9.18;63.58;101024.09;4985559;28;20458;-78
2021/04/18 00:08:44;;;;;;;6.23;5.53;;;;;;;9.13;63.53;101029.31;4986615;28;20226;-79
2021/04/18 00:11:10;;;;;;;5.67;5.00;;;;;;;9.14;63.50;101026.72;4986868;28;20265;-79
2021/04/18 00:13:36;;;;;;;6.90;5.30;;;;;;;9.13;63.39;101024.13;4986584;28;20247;-77
2021/04/18 00:16:02;;;;;;;5.77;4.77;;;;;;;9.03;62.91;101022.41;4987449;28;20207;-79
2021/04/18 00:18:28;;;;;;;6.17;5.67;;;;;;;9.01;63.38;101027.63;4987800;28;20222;-80
2021/04/18 00:20:55;;;;;;;5.90;5.37;;;;;;;8.95;63.33;101028.50;4986512;28;21016;-78
2021/04/18 00:23:22;;;;;;;5.27;4.77;;;;;;;8.98;63.00;101031.97;4987482;28;20229;-78
2021/04/18 00:25:48;;;;;;;6.87;4.97;;;;;;;8.89;63.55;101022.47;4986788;28;20908;-78
2021/04/18 00:28:14;;;;;;;6.17;5.23;;;;;;;8.81;63.05;101029.44;4986690;28;20263;-77
2021/04/18 00:30:40;;;;;;;5.80;5.30;;;;;;;8.69;63.64;101025.09;4986236;28;20240;-78
2021/04/18 00:33:06;;;;;;;4.53;4.13;;;;;;;8.69;64.30;101023.34;4986260;28;20224;-78
2021/04/18 00:35:32;;;;;;;4.67;3.97;;;;;;;8.70;63.93;101024.22;4986418;28;20217;-78
2021/04/18 00:37:58;;;;;;;5.10;4.60;;;;;;;8.72;63.42;101020.78;4986110;28;20250;-79
2021/04/18 00:40:25;;;;;;;5.73;4.30;;;;;;;8.74;63.75;101011.22;4986595;28;21029;-77
2021/04/18 00:42:52;;;;;;;5.20;4.03;;;;;;;8.69;63.10;101014.69;4986416;28;20229;-77
2021/04/18 00:45:19;;;;;;;4.63;3.77;;;;;;;8.63;63.87;101010.38;4987492;28;20214;-79
2021/04/18 00:47:48;;;;;;;4.87;3.90;;;;;;;8.38;63.81;101008.63;4986252;28;20213;-80
2021/04/18 00:50:21;;;;;;;5.33;4.83;;;;;;;8.33;64.38;101011.25;4985826;28;20218;-79
2021/04/18 00:52:47;;;;;;;6.07;3.93;;;;;;;8.12;64.46;101001.69;4986937;28;20692;-78
2021/04/18 00:55:14;;;;;;;5.50;4.70;;;;;;;7.88;65.91;101006.00;4985803;28;20209;-79
2021/04/18 00:57:40;;;;;;;5.27;4.87;;;;;;;7.71;67.46;101011.19;4986062;28;20220;-80
2021/04/18 01:00:08;;;;;;;5.30;4.77;;;;;;;7.78;67.14;101004.25;4986071;28;20235;-79
2021/04/18 01:02:34;;;;;;;7.37;4.37;;;;;;;7.91;67.80;101002.56;4985800;28;20237;-79
2021/04/18 01:05:00;;;;;;;6.30;4.30;;;;;;;8.06;66.58;101004.28;4984955;28;20637;-78
2021/04/18 01:07:27;;;;;;;9.97;4.60;;;;;;;8.15;65.77;100997.38;4986842;28;20208;-79
2021/04/18 01:09:53;;;;;;;8.70;4.63;;;;;;;8.27;65.62;101003.44;4986212;28;20205;-79
2021/04/18 01:12:18;;;;;;;5.97;3.97;;;;;;;8.35;65.10;101001.69;4986621;28;20475;-78
2021/04/18 01:14:44;;;;;;;5.27;3.83;;;;;;;8.29;63.84;101004.31;4986170;28;20204;-79
2021/04/18 01:17:11;;;;;;;6.13;4.50;;;;;;;8.21;64.50;101003.44;4986416;28;20213;-78
2021/04/18 01:19:37;;;;;;;7.97;4.10;;;;;;;8.06;64.27;100993.91;4986931;28;20233;-80
2021/04/18 01:22:04;;;;;;;3.90;3.60;;;;;;;7.85;65.49;101005.13;4985845;28;20233;-78
2021/04/18 01:24:30;;;;;;;4.80;4.30;;;;;;;7.89;66.55;101001.69;4985542;28;20251;-78
2021/04/18 01:26:56;;;;;;;5.83;3.90;;;;;;;8.03;66.56;101001.72;4985940;28;20211;-78
2021/04/18 01:29:23;;;;;;;4.57;3.90;;;;;;;8.05;65.17;100999.97;4987107;28;20199;-78
2021/04/18 01:31:49;;;;;;;6.93;4.27;;;;;;;8.12;65.13;100999.94;4985241;28;21086;-79
2021/04/18 01:34:15;;;;;;;4.37;3.63;;;;;;;8.19;64.55;100987.84;4986723;28;20236;-79
2021/04/18 01:36:42;;;;;;;5.17;4.33;;;;;;;7.84;65.21;100982.63;4986179;28;20261;-78
2021/04/18 01:39:09;;;;;;;4.13;3.83;;;;;;;7.44;66.66;100985.16;4985332;28;20727;-77
2021/04/18 01:41:36;;;;;;;8.30;3.90;;;;;;;7.42;66.89;100982.53;4984764;28;20674;-78
2021/04/18 01:44:04;;;;;;;5.80;4.10;;;;;;;7.21;67.54;100982.47;4985052;28;20204;-78
2021/04/18 01:46:30;;;;;;;4.13;3.73;;;;;;;7.16;68.53;100978.13;4984893;28;20228;-79
2021/04/18 01:48:56;;;;;;;4.57;3.93;;;;;;;7.25;67.71;100981.63;4986014;28;20209;-79
2021/04/18 01:51:24;;;;;;;5.63;4.00;;;;;;;7.16;68.55;100979.88;4985398;28;20654;-78
2021/04/18 01:53:50;;;;;;;3.90;3.60;;;;;;;7.19;68.22;100984.19;4985351;28;20597;-79
2021/04/18 01:56:16;;;;;;;5.53;4.50;;;;;;;7.08;68.88;100985.03;4984484;28;20235;-79
2021/04/18 01:58:42;;;;;;;4.50;4.10;;;;;;;7.09;69.21;100984.16;4986050;28;20570;-79
2021/04/18 02:01:08;;;;;;;4.47;4.00;;;;;;;7.02;69.07;100981.53;4983819;28;20231;-79
2021/04/18 02:03:34;;;;;;;4.40;4.00;;;;;;;6.84;69.77;100977.09;4985126;28;20235;-79
2021/04/18 02:06:00;;;;;;;9.07;4.47;;;;;;;6.81;70.70;100980.56;4984110;28;20292;-78
2021/04/18 02:08:26;;;;;;;5.23;4.43;;;;;;;6.75;71.21;100978.78;4984926;28;20270;-79
2021/04/18 02:10:52;;;;;;;4.57;4.07;;;;;;;6.66;71.29;100967.50;4985054;28;20207;-77
2021/04/18 02:13:19;;;;;;;6.13;4.50;;;;;;;6.66;71.46;100975.28;4984084;28;20227;-79
2021/04/18 02:15:45;;;;;;;4.80;3.93;;;;;;;6.76;71.51;100974.50;4985274;28;20214;-78
2021/04/18 02:18:11;;;;;;;4.03;3.53;;;;;;;6.89;70.83;100978.00;4985112;28;20211;-79
2021/04/18 02:20:37;;;;;;;7.03;3.93;;;;;;;6.90;71.39;100985.81;4984423;28;20444;-78
2021/04/18 02:23:02;;;;;;;6.13;3.77;;;;;;;6.97;70.83;100979.78;4985375;28;20221;-78
2021/04/18 02:25:28;;;;;;;4.63;4.13;;;;;;;7.05;71.28;100985.00;4984500;28;20653;-79
2021/04/18 02:27:54;;;;;;;4.70;3.90;;;;;;;6.93;71.00;100985.81;4985044;28;20219;-78
2021/04/18 02:30:22;;;;;;;7.83;4.13;;;;;;;6.82;71.24;100984.00;4984107;28;20209;-78
2021/04/18 02:32:48;;;;;;;6.23;4.37;;;;;;;6.66;72.17;100977.88;4984561;28;20305;-79
2021/04/18 02:35:16;;;;;;;6.57;4.43;;;;;;;6.60;72.79;100990.81;4985075;28;20688;-79
2021/04/18 02:37:42;;;;;;;5.57;4.83;;;;;;;6.66;72.27;100989.16;4984907;28;20300;-78
2021/04/18 02:40:09;;;;;;;5.10;4.60;;;;;;;6.78;72.05;100993.53;4984916;28;20712;-79
2021/04/18 02:42:35;;;;;;;6.53;4.83;;;;;;;6.96;71.68;101000.53;4984031;28;20231;-79
2021/04/18 02:45:01;;;;;;;5.37;4.87;;;;;;;7.15;71.39;101004.06;4984943;28;20207;-79
2021/04/18 02:47:28;;;;;;;5.13;4.73;;;;;;;7.27;70.77;101001.53;4985919;28;20209;-79
2021/04/18 02:49:54;;;;;;;7.70;4.73;;;;;;;7.38;70.20;101005.91;4984213;28;20214;-79
2021/04/18 02:52:20;;;;;;;8.17;4.37;;;;;;;7.43;69.47;100996.38;4986703;28;20227;-79
2021/04/18 02:54:46;;;;;;;5.47;4.10;;;;;;;7.51;69.56;100999.88;4985460;28;20303;-79
2021/04/18 02:57:11;;;;;;;9.10;5.13;;;;;;;7.62;67.85;101000.78;4984770;28;20204;-80
2021/04/18 02:59:37;;;;;;;4.77;4.47;;;;;;;7.62;66.97;100999.91;4985455;28;20399;-79
2021/04/18 03:02:03;;;;;;;5.73;3.77;;;;;;;7.66;67.13;100999.06;4987210;28;20667;-79
2021/04/18 03:04:30;;;;;;;4.97;4.43;;;;;;;7.68;67.72;100999.91;4989119;28;20214;-78
2021/04/18 03:06:56;;;;;;;5.13;4.53;;;;;;;7.69;67.32;100999.03;4987861;28;20230;-80
2021/04/18 03:09:22;;;;;;;6.67;4.07;;;;;;;7.72;67.20;101009.47;4988978;28;20219;-78
2021/04/18 03:11:47;;;;;;;4.63;4.23;;;;;;;7.79;67.88;101002.53;4987808;28;20316;-79
2021/04/18 03:14:13;;;;;;;8.50;4.37;;;;;;;7.86;66.86;100997.34;4987303;28;20524;-77
2021/04/18 03:16:39;;;;;;;5.70;5.07;;;;;;;7.86;66.60;100991.28;4988005;28;20208;-79
2021/04/18 03:19:05;;;;;;;6.10;4.67;;;;;;;7.75;67.27;100999.94;4987483;28;20203;-79
2021/04/18 03:21:32;;;;;;;6.47;4.47;;;;;;;7.74;66.93;100995.59;4987399;28;20276;-80
2021/04/18 03:23:58;;;;;;;5.23;4.73;;;;;;;7.81;67.35;100993.88;4988877;28;20205;-79
2021/04/18 03:26:24;;;;;;;5.03;4.40;;;;;;;7.82;67.53;100992.16;4988460;28;20249;-78
2021/04/18 03:28:49;;;;;;;7.00;4.67;;;;;;;7.90;67.13;100998.22;4988829;28;20208;-79
2021/04/18 03:31:16;;;;;;;6.13;4.23;;;;;;;7.96;67.04;100995.63;4988090;28;20211;-78
2021/04/18 03:33:42;;;;;;;4.97;4.20;;;;;;;7.99;66.47;100994.75;4987717;28;20247;-79
2021/04/18 03:36:08;;;;;;;7.87;4.97;;;;;;;7.95;67.58;100994.75;4988484;28;20705;-80
2021/04/18 03:38:35;;;;;;;4.87;4.43;;;;;;;7.94;67.18;100998.22;4988166;28;20543;-80
2021/04/18 03:41:01;;;;;;;4.87;4.17;;;;;;;7.95;66.90;100994.75;4988456;28;20791;-78
2021/04/18 03:43:27;;;;;;;4.63;4.23;;;;;;;7.94;66.63;100992.16;4988281;28;20318;-80
2021/04/18 03:45:53;;;;;;;4.73;4.33;;;;;;;7.86;67.46;100994.75;4988145;28;20298;-79
2021/04/18 03:48:18;;;;;;;5.67;4.27;;;;;;;7.86;66.74;100994.75;4987451;28;20301;-79
2021/04/18 03:50:44;;;;;;;4.60;4.20;;;;;;;7.96;66.01;100990.41;4987498;28;20204;-78
2021/04/18 03:53:10;;;;;;;5.10;4.60;;;;;;;7.94;67.04;100994.75;4987780;28;20256;-78
2021/04/18 03:55:37;;;;;;;4.53;4.13;;;;;;;7.93;66.32;100993.03;4987797;28;20220;-79
2021/04/18 03:58:03;;;;;;;8.43;5.20;;;;;;;7.96;66.20;100986.09;4988070;28;20207;-79
2021/04/18 04:00:29;;;;;;;4.90;4.40;;;;;;;8.01;65.42;100990.41;4986990;28;20230;-79
2021/04/18 04:02:54;;;;;;;5.20;4.70;;;;;;;8.02;65.07;100992.16;4986037;28;20310;-79
2021/04/18 04:05:20;;;;;;;6.43;4.37;;;;;;;7.98;66.68;101001.69;4986052;28;20211;-78
2021/04/18 04:07:46;;;;;;;7.27;5.07;;;;;;;7.92;66.45;100999.09;4987153;28;20691;-79
2021/04/18 04:10:13;;;;;;;6.97;4.80;;;;;;;7.82;66.96;101006.00;4986066;28;20202;-79
2021/04/18 04:12:39;;;;;;;5.17;4.67;;;;;;;7.87;66.81;100995.59;4985942;28;20235;-77
2021/04/18 04:15:06;;;;;;;5.30;4.80;;;;;;;7.85;67.30;100998.22;4986516;28;20279;-79
2021/04/18 04:17:32;;;;;;;6.20;4.70;;;;;;;7.86;67.80;101007.75;4986467;28;20378;-79
2021/04/18 04:19:58;;;;;;;5.57;5.07;;;;;;;7.85;67.72;100997.34;4986311;28;20667;-78
2021/04/18 04:22:24;;;;;;;6.30;4.30;;;;;;;7.88;68.29;100998.22;4987832;28;20234;-79
2021/04/18 04:24:51;;;;;;;8.43;5.00;;;;;;;7.93;67.12;101000.84;4984550;28;20217;-79
2021/04/18 04:27:18;;;;;;;7.07;4.67;;;;;;;7.94;67.13;101000.81;4986189;28;20207;-78
2021/04/18 04:29:45;;;;;;;7.97;4.60;;;;;;;7.94;67.20;101003.41;4986357;28;20218;-80
2021/04/18 04:32:11;;;;;;;5.07;4.53;;;;;;;7.86;68.08;101018.13;4985748;28;20277;-78
2021/04/18 04:34:37;;;;;;;5.57;4.47;;;;;;;7.90;68.36;101014.66;4986072;28;20212;-79
2021/04/18 04:37:04;;;;;;;5.03;4.63;;;;;;;7.86;68.28;101015.53;4986508;28;20298;-79
2021/04/18 04:39:30;;;;;;;5.83;4.73;;;;;;;7.81;67.99;101008.59;4986046;28;20233;-79
2021/04/18 04:41:56;;;;;;;5.87;4.23;;;;;;;7.82;67.81;101007.75;4985773;28;20233;-80
2021/04/18 04:44:22;;;;;;;4.43;4.03;;;;;;;7.82;67.61;101008.59;4985640;28;21378;-78
2021/04/18 04:46:49;;;;;;;6.03;4.30;;;;;;;7.84;67.55;101011.22;4985653;28;20208;-76
2021/04/18 04:49:15;;;;;;;5.50;4.77;;;;;;;7.86;68.07;101014.69;4987104;28;20214;-79
2021/04/18 04:51:41;;;;;;;5.37;4.37;;;;;;;7.91;67.38;101010.38;4986193;28;20211;-79
2021/04/18 04:54:06;;;;;;;5.13;4.63;;;;;;;7.95;67.59;101009.50;4985996;28;20270;-80
2021/04/18 04:56:32;;;;;;;7.93;4.93;;;;;;;7.70;68.20;101000.78;4987298;28;20214;-79
2021/04/18 04:58:58;;;;;;;5.23;4.70;;;;;;;7.63;68.67;101007.72;4986495;28;20212;-79
2021/04/18 05:01:25;;;;;;;7.40;4.93;;;;;;;7.40;69.56;101007.63;4985984;28;20684;-79
2021/04/18 05:03:52;;;;;;;5.10;4.60;;;;;;;7.44;70.21;101003.34;4986366;28;20227;-78
2021/04/18 05:06:17;;;;;;;6.57;4.80;;;;;;;7.55;69.72;101002.50;4985233;28;20254;-78
2021/04/18 05:08:43;;;;;;;6.37;5.73;;;;;;;7.64;70.47;101004.25;4986487;28;20218;-79
2021/04/18 05:11:09;;;;;;;7.17;4.67;;;;;;;7.76;69.52;101006.84;4986112;28;20234;-79
2021/04/18 05:13:35;;;;;;;9.97;5.87;;;;;;;7.79;68.97;101006.00;4985343;28;20310;-79
2021/04/18 05:16:01;;;;;;;5.30;4.80;;;;;;;7.88;68.75;101006.00;4985369;28;20214;-78
2021/04/18 05:18:27;;;;;;;7.13;5.67;;;;;;;7.86;69.23;101007.75;4986101;28;20206;-78
2021/04/18 05:20:53;;;;;;;6.83;5.07;;;;;;;7.92;68.36;101007.75;4985390;28;20235;-79
2021/04/18 05:23:19;;;;;;;8.90;5.47;;;;;;;7.98;68.64;101008.63;4984890;28;20225;-80
2021/04/18 05:25:46;;;;;;;6.20;5.07;;;;;;;7.96;68.55;101014.69;4984698;28;20237;-78
2021/04/18 05:28:11;;;;;;;7.87;6.00;;;;;;;8.00;69.24;101012.97;4986429;28;20212;-79
2021/04/18 05:30:38;;;;;;;9.43;5.70;;;;;;;8.04;68.37;101014.69;4985892;28;20282;-79
2021/04/18 05:33:04;;;;;;;8.63;6.00;;;;;;;8.08;68.39;101011.22;4985582;28;20680;-78
2021/04/18 05:35:29;;;;;;;8.20;5.80;;;;;;;8.17;68.27;101007.78;4985864;28;20213;-79
2021/04/18 05:37:56;;;;;;;9.07;5.47;;;;;;;8.20;67.43;101001.69;4985976;28;20239;-78
2021/04/18 05:40:22;;;;;;;5.80;5.30;;;;;;;8.21;67.83;101006.06;4985778;28;20227;-79
2021/04/18 05:42:48;;;;;;;8.30;5.90;;;;;;;8.22;67.72;101007.75;4984602;28;21142;-78
2021/04/18 05:45:14;;;;;;;8.03;5.17;;;;;;;8.24;68.43;101011.22;4985486;28;20722;-78
2021/04/18 05:47:40;;;;;;;13.13;6.40;;;;;;;8.28;68.75;101011.22;4985650;28;20223;-79
2021/04/18 05:50:07;;;;;;;9.80;6.33;;;;;;;8.30;68.31;101009.47;4985279;28;20574;-80
2021/04/18 05:52:33;;;;;;;9.93;6.33;;;;;;;8.27;68.34;101008.66;4986471;28;20238;-78
2021/04/18 05:54:59;;;;;;;9.60;6.50;;;;;;;8.27;68.84;101000.84;4984693;28;20331;-79
2021/04/18 05:57:25;;;;;;;7.00;6.40;;;;;;;8.30;68.45;101011.22;4985857;28;20234;-78
2021/04/18 05:59:51;;;;;;;6.83;6.33;;;;;;;8.30;68.16;101008.63;4984981;28;20228;-78
2021/04/18 06:02:17;;;;;;;7.77;6.60;;;;;;;8.30;68.18;101003.44;4985093;28;20274;-79
2021/04/18 06:04:43;;;;;;;11.70;7.73;;;;;;;8.28;68.65;101011.22;4984967;28;20290;-79
2021/04/18 06:07:08;;;;;;;8.93;8.07;;;;;;;8.29;69.07;101006.91;4985490;28;20204;-78
2021/04/18 06:09:34;;;;;;;8.57;7.53;;;;;;;8.35;69.05;101004.31;4984664;28;20245;-78
2021/04/18 06:12:01;;;;;;;9.80;7.37;;;;;;;8.37;69.64;101004.31;4984124;28;20236;-78
2021/04/18 06:14:27;;;;;;;7.90;7.10;;;;;;;8.42;69.50;101006.03;4985492;28;20236;-79
2021/04/18 06:16:53;;;;;;;8.67;7.77;;;;;;;8.46;70.20;101010.41;4985190;28;20644;-78
2021/04/18 06:19:18;;;;;;;11.27;8.43;;;;;;;8.49;69.15;101007.78;4984770;28;20252;-80
2021/04/18 06:21:44;;;;;;;8.87;8.00;;;;;;;8.60;68.93;101007.75;4984846;28;20213;-77
2021/04/18 06:24:11;;;;;;;10.20;8.70;;;;;;;8.68;69.54;101011.22;4984400;28;20749;-79
2021/04/18 06:26:37;;;;;;;9.77;8.80;;;;;;;8.72;68.98;101005.16;4984795;28;20205;-79
2021/04/18 06:29:03;;;;;;;9.13;8.23;;;;;;;8.73;69.36;101008.63;4985562;28;20245;-79
2021/04/18 06:31:29;;;;;;;10.73;8.87;;;;;;;8.74;69.62;101010.31;4983399;28;20211;-78
2021/04/18 06:33:55;;;;;;;10.17;9.00;;;;;;;8.71;69.55;101008.59;4985292;28;20289;-79
2021/04/18 06:36:21;;;;;;;9.80;8.70;;;;;;;8.76;69.18;101006.00;4986144;28;20216;-78
2021/04/18 06:38:47;;;;;;;10.73;9.00;;;;;;;8.78;69.63;101003.38;4989693;28;20211;-79
2021/04/18 06:41:19;;;;;;;9.07;8.27;;;;;;;8.79;69.38;101005.13;4988972;28;20315;-79
2021/04/18 06:43:46;;;;;;;10.43;8.93;;;;;;;8.75;69.95;100999.91;4988293;28;20649;-78
2021/04/18 06:46:15;;;;;;;10.30;9.30;;;;;;;8.73;70.29;101000.81;4988553;28;20212;-79
2021/04/18 06:48:42;;;;;;;11.03;9.50;;;;;;;8.70;70.71;101000.78;4988495;28;20713;-78
2021/04/18 06:51:08;;;;;;;10.80;9.23;;;;;;;8.69;70.62;101001.69;4988017;28;20637;-78
2021/04/18 06:53:34;;;;;;;11.73;10.47;;;;;;;8.68;70.73;100994.72;4989423;28;20232;-79
2021/04/18 06:56:03;;;;;;;15.00;11.17;;;;;;;8.77;70.35;100997.31;4988171;28;20266;-78
2021/04/18 06:58:28;;;;;;;11.87;10.77;;;;;;;8.81;69.46;101001.66;4988010;28;20506;-78
2021/04/18 07:00:54;;;;;;;12.07;10.40;;;;;;;8.81;69.77;100996.44;4988319;28;20242;-79
2021/04/18 07:03:22;;;;;;;12.10;11.00;;;;;;;8.83;69.82;100994.69;4988158;28;20254;-78
2021/04/18 07:05:50;;;;;;;12.07;10.73;;;;;;;8.80;70.83;100999.03;4988831;28;20212;-79
2021/04/18 07:08:24;;;;;;;12.70;11.60;;;;;;;8.95;70.13;101002.47;4988599;28;20211;-79
2021/04/18 07:10:51;;;;;;;11.60;10.50;;;;;;;9.04;69.82;101000.69;4988041;28;20218;-79
2021/04/18 07:13:19;;;;;;;12.73;10.73;;;;;;;9.13;69.48;101003.28;4987779;28;20272;-78
2021/04/18 07:15:46;;;;;;;11.53;10.47;;;;;;;9.13;69.28;101003.28;4988975;28;20227;-79
2021/04/18 07:18:38;;;;;;;11.83;10.83;;;;;;;9.18;68.51;100998.03;4989158;28;20215;-79
2021/04/18 07:21:04;;;;;;;12.17;10.90;;;;;;;9.21;68.41;100998.91;4987389;28;20654;-79
2021/04/18 07:23:33;;;;;;;12.33;11.13;;;;;;;9.22;68.91;100997.19;4988308;28;20281;-78
2021/04/18 07:26:17;;;;;;;11.20;10.10;;;;;;;9.21;68.76;101000.66;4988076;28;20209;-79
2021/04/18 07:28:43;;;;;;;11.13;10.13;;;;;;;9.14;69.45;100990.25;4988763;28;20600;-79
2021/04/18 07:31:08;;;;;;;12.97;11.13;;;;;;;9.10;69.41;100993.75;4988699;28;20200;-79
2021/04/18 07:33:34;;;;;;;11.67;10.43;;;;;;;9.15;68.45;101004.13;4988455;28;20722;-79
2021/04/18 07:36:01;;;;;;;11.73;10.63;;;;;;;9.18;68.31;101001.53;4988402;28;20628;-80
2021/04/18 07:38:30;;;;;;;10.43;9.63;;;;;;;9.22;68.60;100998.03;4990842;28;20448;-79
2021/04/18 07:40:57;;;;;;;12.10;10.30;;;;;;;9.31;68.98;100997.13;4990516;28;20257;-79
2021/04/18 07:43:23;;;;;;;12.43;10.30;;;;;;;9.37;67.99;101004.91;4989757;28;20773;-78
2021/04/18 07:45:51;;;;;;;10.60;9.63;;;;;;;9.44;67.59;101003.16;4990562;28;20221;-79
2021/04/18 07:48:19;;;;;;;12.50;9.63;;;;;;;9.43;67.29;100996.19;4989212;28;20215;-79
2021/04/18 07:50:47;;;;;;;10.83;9.73;;;;;;;9.46;67.61;101004.88;4987543;28;20311;-79
2021/04/18 07:53:16;;;;;;;11.13;10.10;;;;;;;9.46;67.37;101002.25;4987561;28;20230;-78
2021/04/18 07:55:42;;;;;;;14.17;10.60;;;;;;;9.54;67.45;100995.25;4988105;28;20237;-79
2021/04/18 07:58:10;;;;;;;11.30;10.20;;;;;;;9.63;66.98;100998.69;4988139;28;20214;-79
2021/04/18 08:00:36;;;;;;;11.50;10.50;;;;;;;9.67;66.47;100997.78;4987128;28;20234;-78
2021/04/18 08:03:02;;;;;;;10.80;9.90;;;;;;;9.67;66.69;100998.69;4989726;28;20292;-80
2021/04/18 08:05:30;;;;;;;10.67;9.77;;;;;;;9.73;66.79;100993.41;4988572;28;20550;-78
2021/04/18 08:08:01;;;;;;;12.00;10.80;;;;;;;9.74;66.57;100996.88;4987926;28;20246;-80
2021/04/18 08:10:31;;;;;;;10.90;10.00;;;;;;;9.61;66.56;100988.25;4986663;28;20717;-79
2021/04/18 08:13:02;;;;;;;11.43;10.43;;;;;;;9.56;67.03;100992.66;4987664;28;20298;-79
2021/04/18 08:15:28;;;;;;;12.73;10.43;;;;;;;9.55;67.52;100993.50;4984333;28;21207;-78
2021/04/18 08:18:09;;;;;;;11.20;10.30;;;;;;;9.63;66.71;100996.06;4985436;28;20225;-80
2021/04/18 08:20:37;;;;;;;11.93;10.43;;;;;;;9.50;67.99;100993.56;4987790;28;20294;-79
2021/04/18 08:23:08;;;;;;;14.00;10.83;;;;;;;9.68;67.49;100997.78;4986620;28;20230;-77
2021/04/18 08:25:37;;;;;;;11.70;10.70;;;;;;;9.78;67.21;101001.19;4985750;28;20217;-79
2021/04/18 08:28:06;;;;;;;12.87;11.20;;;;;;;9.83;67.10;101002.06;4988336;28;20210;-78
2021/04/18 08:31:00;;;;;;;13.40;12.00;;;;;;;9.97;66.35;101001.06;4987517;28;20215;-79
2021/04/18 08:33:42;;;;;;;13.27;11.53;;;;;;;10.05;65.98;100999.25;4986947;28;20625;-79
2021/04/18 08:36:14;;;;;;;12.40;11.20;;;;;;;10.10;66.04;100997.50;4985950;28;20584;-78
2021/04/18 08:38:40;;;;;;;11.30;10.40;;;;;;;10.05;65.69;100997.53;4986474;28;20222;-79
2021/04/18 08:41:10;;;;;;;12.63;11.40;;;;;;;10.11;65.66;100992.28;4985580;28;20228;-79
2021/04/18 08:43:36;;;;;;;13.33;10.93;;;;;;;10.21;66.02;100993.06;4984912;28;21220;-79
2021/04/18 08:46:02;;;;;;;12.43;11.43;;;;;;;10.27;65.59;100999.97;4985960;28;20223;-78
2021/04/18 08:48:28;;;;;;;12.20;11.17;;;;;;;10.36;65.76;100992.09;4986301;28;20258;-80
2021/04/18 08:50:55;;;;;;;12.97;11.80;;;;;;;10.48;65.35;100997.19;4986056;28;20299;-76
2021/04/18 08:53:22;;;;;;;12.47;11.37;;;;;;;10.60;64.23;100993.59;4983956;28;20258;-76
2021/04/18 08:55:56;;;;;;;11.77;10.83;;;;;;;10.59;64.38;101001.47;4984788;28;20267;-78
2021/04/18 08:58:34;;;;;;;12.33;11.23;;;;;;;10.55;64.74;101000.63;4984467;28;20217;-78
2021/04/18 09:01:05;;;;;;;12.83;11.73;;;;;;;10.64;64.42;101005.72;4983929;28;20220;-76
2021/04/18 09:03:31;;;;;;;12.53;11.27;;;;;;;10.65;64.57;101004.84;4982848;28;20240;-77
2021/04/18 09:06:04;;;;;;;12.67;11.57;;;;;;;10.72;64.37;101006.53;4983762;28;20215;-78
2021/04/18 09:08:30;;;;;;;13.60;12.30;;;;;;;10.75;64.68;101003.03;4985004;28;20208;-77
2021/04/18 09:11:03;;;;;;;14.67;12.37;;;;;;;10.83;64.36;101005.56;4984607;28;21015;-75
2021/04/18 09:13:29;;;;;;;13.90;12.47;;;;;;;10.86;64.39;101003.78;4984171;28;20230;-77
2021/04/18 09:15:56;;;;;;;12.83;11.53;;;;;;;10.84;64.07;101005.53;4984863;28;20646;-77
2021/04/18 09:18:23;;;;;;;13.03;11.73;;;;;;;10.80;64.65;101006.47;4984405;28;20595;-78
2021/04/18 09:21:13;;;;;;;13.13;12.00;;;;;;;10.76;64.59;101004.72;4984435;28;20241;-76
2021/04/18 09:23:56;;;;;;;13.10;12.00;;;;;;;10.75;65.25;101007.38;4984226;28;20231;-77
2021/04/18 09:26:21;;;;;;;13.80;12.70;;;;;;;10.81;64.82;101005.56;4983413;28;20208;-77
2021/04/18 09:29:06;;;;;;;13.63;12.63;;;;;;;10.87;64.95;101002.88;4983854;28;20295;-77
2021/04/18 09:31:33;;;;;;;15.23;13.73;;;;;;;10.99;64.06;101001.88;4983341;28;20604;-74
2021/04/18 09:34:06;;;;;;;13.73;12.47;;;;;;;11.04;65.14;101005.31;4984076;28;20214;-75
2021/04/18 09:36:32;;;;;;;13.00;12.00;;;;;;;11.18;64.42;101004.25;4982619;28;20374;-75
2021/04/18 09:38:59;;;;;;;14.23;12.70;;;;;;;11.28;63.37;101004.13;4984338;28;20223;-77
2021/04/18 09:41:26;;;;;;;14.77;13.37;;;;;;;11.18;64.25;101002.53;4982991;28;20239;-78
2021/04/18 09:43:57;;;;;;;14.93;13.43;;;;;;;11.21;63.98;101009.47;4983366;28;20235;-80
2021/04/18 09:46:23;;;;;;;14.23;12.93;;;;;;;11.25;63.66;101006.78;4983373;28;20209;-79
2021/04/18 09:49:00;;;;;;;14.50;12.93;;;;;;;11.31;63.45;101009.31;4984194;28;21480;-76
2021/04/18 09:51:26;;;;;;;14.13;12.83;;;;;;;11.33;63.69;101001.47;4982801;28;20734;-81
2021/04/18 09:54:02;;;;;;;13.93;12.70;;;;;;;11.49;63.46;101013.44;4983470;28;20232;-78
2021/04/18 09:56:28;;;;;;;14.40;13.13;;;;;;;11.66;63.35;101007.97;4983221;28;20211;-78
2021/04/18 09:58:54;;;;;;;12.97;11.97;;;;;;;11.85;62.57;101007.72;4985475;28;20215;-78
2021/04/18 10:01:25;;;;;;;14.33;12.93;;;;;;;11.98;63.29;101000.59;4983600;28;20257;-78
2021/04/18 10:03:51;;;;;;;14.00;12.70;;;;;;;12.09;61.89;101001.25;4982784;28;20244;-78
2021/04/18 10:06:18;;;;;;;14.67;13.27;;;;;;;12.16;61.71;100997.66;4981817;28;20216;-78
2021/04/18 10:08:53;;;;;;;13.67;12.53;;;;;;;12.15;61.84;100995.94;4984175;28;20210;-78
2021/04/18 10:11:21;;;;;;;14.23;12.93;;;;;;;12.15;61.85;100988.09;4982949;28;20211;-79
2021/04/18 10:13:50;;;;;;;15.50;14.10;;;;;;;12.20;62.83;100988.00;4987274;28;20238;-77
2021/04/18 10:16:17;;;;;;;13.87;12.67;;;;;;;12.10;62.75;100988.16;4986821;28;20206;-78
2021/04/18 10:19:05;;;;;;;13.23;12.23;;;;;;;12.16;62.70;100991.56;4986104;28;20210;-78
2021/04/18 10:21:31;;;;;;;14.37;12.97;;;;;;;12.24;61.96;100985.31;4982145;28;20237;-77
2021/04/18 10:23:57;;;;;;;14.97;13.57;;;;;;;12.02;62.01;100984.81;4982653;28;20209;-77
2021/04/18 10:26:24;;;;;;;14.10;12.87;;;;;;;11.91;63.76;100986.72;4981128;28;20611;-78
2021/04/18 10:28:52;;;;;;;15.40;13.90;;;;;;;12.01;64.29;100974.34;4982273;28;20204;-77
2021/04/18 10:31:20;;;;;;;15.53;13.57;;;;;;;12.16;62.90;100968.88;4982461;28;20213;-76
2021/04/18 10:33:46;;;;;;;16.07;13.87;;;;;;;12.24;64.11;100974.84;4982453;28;20357;-77
2021/04/18 10:36:13;;;;;;;15.80;14.43;;;;;;;12.28;64.19;100973.03;4981757;28;20355;-77
2021/04/18 10:38:40;;;;;;;14.80;13.47;;;;;;;12.37;63.83;100967.66;4983903;28;20271;-79
2021/04/18 10:41:07;;;;;;;14.97;13.57;;;;;;;12.42;64.21;100967.56;4982949;28;20261;-77
2021/04/18 10:43:34;;;;;;;14.07;12.80;;;;;;;12.66;62.52;100967.09;4982511;28;20238;-77
2021/04/18 10:46:00;;;;;;;14.60;13.20;;;;;;;12.74;62.20;100963.47;4983882;28;20305;-76
2021/04/18 10:48:26;;;;;;;13.80;12.60;;;;;;;12.93;61.23;100959.59;4984298;28;20299;-78
2021/04/18 10:50:52;;;;;;;14.03;12.73;;;;;;;13.06;60.16;100963.69;4983880;28;20206;-78
2021/04/18 10:53:19;;;;;;;13.93;12.73;;;;;;;13.18;60.27;100961.69;4984783;28;20251;-79
2021/04/18 10:55:47;;;;;;;14.87;13.13;;;;;;;13.28;62.19;100958.84;4986991;28;20219;-79
2021/04/18 10:58:15;;;;;;;13.70;12.60;;;;;;;13.44;59.51;100958.56;4986803;28;20691;-80
2021/04/18 11:00:41;;;;;;;15.23;14.00;;;;;;;13.58;59.79;100956.47;4986275;28;20330;-79
2021/04/18 11:03:07;;;;;;;14.73;13.20;;;;;;;13.74;59.44;100956.97;4988175;28;20223;-81
2021/04/18 11:05:33;;;;;;;14.13;12.97;;;;;;;13.84;60.08;100953.22;4985307;28;20596;-79
2021/04/18 11:07:59;;;;;;;14.63;12.97;;;;;;;13.88;61.23;100951.41;4985708;28;20214;-79
2021/04/18 11:10:25;;;;;;;12.90;11.80;;;;;;;14.11;59.66;100945.56;4987281;28;20241;-80
2021/04/18 11:12:51;;;;;;;12.60;11.47;;;;;;;14.16;57.81;100948.94;4985090;28;20762;-77
2021/04/18 11:15:17;;;;;;;12.73;11.73;;;;;;;14.18;59.06;100941.03;4987166;28;20751;-80
2021/04/18 11:17:43;;;;;;;13.07;12.17;;;;;;;14.22;59.39;100948.78;4987334;28;20214;-79
2021/04/18 11:20:12;;;;;;;13.07;12.07;;;;;;;14.46;58.17;100949.88;4987567;28;20304;-80
2021/04/18 11:22:39;;;;;;;12.57;11.57;;;;;;;14.76;56.73;100947.34;4990538;28;20235;-78
2021/04/18 11:25:06;;;;;;;12.67;11.67;;;;;;;14.88;56.52;100946.16;4991342;28;20215;-80